Vliegveldwaarnemingen Nederland - (AUTO) METAR

Luchtvaartmeteorologische informatie voor operationeel gebruik en vluchtvoorbereiding is beschikbaar op www.luchtvaartmeteo.nl.

ZCZC
SA171625 EHKD     DE KOOY/DE KOOY   NLD   1 m.
METAR EHKD 171625Z AUTO 05012KT 350V080 9999 BKN019 OVC024 20/16
Q1012
WHT TEMPO 4000 SHRA RA FEW008 SCT012 SCT020CB=

ZCZC
SA171625 EHFD     F3-FB-1   NLD   50 m.
METAR EHFD 171625Z AUTO VRB12KT 9999 FEW011/// SCT015/// BKN030///
18/15 Q1014=

ZCZC
SA171625 EHAM     AMSTERDAM/SCHIPHOL   NLD   -3 m.
METAR EHAM 171625Z 36006KT 9999 FEW010 SCT024 20/18 Q1011 NOSIG=

ZCZC
SA171625 EHVL     VLIELAND   NLD   10 m.
METAR EHVL 171625Z AUTO 05012KT 9999 FEW010 FEW015CB SCT073 OVC127
20/18 Q1012 BLU=

ZCZC
SA171625 EHJR     K13-A   NLD   37 m.
METAR EHJR 171625Z AUTO 03010KT //// // ///////// 19/17 Q1013 RE//
W19/H16=

ZCZC
SA171625 EHLE     LELYSTAD/LELYSTAD   NLD   -3 m.
METAR EHLE 171625Z AUTO 03013KT 8000 FEW007 21/19 Q1010 NOSIG=

ZCZC
SA171625 EHLW     LEEUWARDEN/LEEUWARDEN   NLD   1 m.
METAR EHLW 171625Z AUTO 04011KT 360V060 9999 FEW008 FEW015CB OVC100
19/18 Q1011 BLU=

ZCZC
SA171625 EHDL     ARNHEM/DEELEN   NLD   48 m.
METAR EHDL 171625Z AUTO 31005KT 260V020 8000 BR FEW009 OVC050 22/20
Q1010 BLU=

ZCZC
SA171625 EHGG     GRONINGEN/EELDE   NLD   5 m.
METAR EHGG 171625Z AUTO 01009KT 340V050 6000 -TSRA FEW000 SCT015CB
20/18 Q1011 RERA TEMPO VRB15G25KT 2000 TSRA BKN015CB=

ZCZC
SA171625 EHSC     LICHTEILAND GOEREE   NLD   22 m.
METAR EHSC 171625Z AUTO 35009KT 9999 ///////// 20/18 Q1012 W21/H8=

ZCZC
SA171625 EHSA     EURO PLATFORM   NLD   19 m.
METAR EHSA 171625Z AUTO 34004KT 9999 ///////// 20/17 Q1012 W21/H10=

ZCZC
SA171625 EHWO     WOENSDRECHT/WOENSDRECHT   NLD   19 m.
METAR EHWO 171625Z AUTO VRB02KT 3900 RA SCT061 OVC099 18/18 Q1011 GRN=

ZCZC
SA171625 EHRD     ROTTERDAM/THE HAGUE AIRPORT   NLD   -5 m.
METAR EHRD 171625Z AUTO 36004KT 310V030 9999 OVC013 20/18 Q1011
NOSIG=

ZCZC
SA171625 EHGR     GILZE-RIJEN/GILZE-RIJEN   NLD   14 m.
METAR EHGR 171625Z AUTO 24003KT 210V290 5000 -RA FEW050 SCT083 OVC100
19/18 Q1011 WHT=

ZCZC
SA171625 EHEH     EINDHOVEN/EINDHOVEN   NLD   22 m.
METAR EHEH 171625Z AUTO 29004KT 220V330 4500 BR BKN037 OVC042 20/19
Q1011
GRN BECMG 6000 BR=

ZCZC
SA171625 EHVK     VOLKEL/VOLKEL   NLD   21 m.
METAR EHVK 171625Z AUTO 26005KT 220V300 6000 BR FEW007 BKN010 BKN013
21/18 Q1011 GRN=

ZCZC
SA171625 EHBK     MAASTRICHT/MAASTRICHT-AACHEN   NLD   114 m.
METAR EHBK 171625Z AUTO 23004KT 180V340 9999 NSC 23/16 Q1011 NOSIG=

ZCZC
SA171625 EHKV     K14-FA-1C   NLD   41 m.
METAR EHKV 171625Z AUTO 08006KT 4600 RA FEW005 SCT009 BKN011 18/17
Q////=

ZCZC
SA171625 EHMG     L9-FF-1   NLD   44 m.
METAR EHMG 171625Z AUTO 07013KT 9999 FEW006 19/17 Q1013=

ZCZC
SA171625 EHMA     AWG-1   NLD   40 m.
METAR EHMA 171625Z AUTO 02013KT 290V050 9000 -SHRA FEW005 SCT009
SCT015CB BKN044 19/18 Q1012 RERA=

ZCZC
SA171625 EHDV     D15-FA-1   NLD   42 m.
METAR EHDV 171625Z AUTO 03018KT 9999 SCT014/// BKN016/// OVC033///
18/// Q1014=

ZCZC
SA171625 EHAK     A12-CPP   NLD   48 m.
METAR EHAK 171625Z AUTO 02017KT 340V050 9999 SCT013/// BKN016///
BKN020/// 17/14 Q1015=

ZCZC
SA171625 EHQE     HOORN-A   NLD   50 m.
METAR EHQE 171625Z AUTO /////KT 9999 FEW008 19/17 Q1012=

ZCZC
SA171625 EHJA     J6-A   NLD   45 m.
METAR EHJA 171625Z AUTO 04018KT 9999 FEW012/// BKN015/// BKN019///
19/15 Q1014=

ZCZC
SA171625 EHPG     P11-B   NLD   41 m.
METAR EHPG 171625Z AUTO 01003KT 310V070 9999 FEW012 SCT015 BKN036
19/18 Q1012=

ZCZC
SA171625 EHHW     BUITENGAATS/BG-OHVS2      42 m.
METAR EHHW 171625Z AUTO 04014KT 9999 FEW009/// 19/17 Q1012=

ZCZC
SA171625 EHFS     VLISSINGEN AWS   NLD   8 m.
METAR EHFS 171625Z AUTO 11008KT 060V130 9999 FEW011/// BKN015///
OVC020/// 20/18 Q1012=

ZCZC
SA171625 EHSG     BSA   NLD   43 m.
METAR EHSG 171625Z AUTO 01006KT 330V060 9999 FEW010/// 20/17 Q1012=

17/08/2022 18.45 uur LT